Moffat, CO

9:29 AM MDT on September 19, 2014 (GMT -0600)
RAWS SAN LUIS VALLEY PORTABLE CO US | Change Station
CLOSE
Current Station
Personal Weather Station
Location: Villa Grove, CO
Elevation: 8414 ft
Nearby Weather Stations

Elev 8414 ft 38.36 °N, 106.02 °W | Updated 1 hour ago

Clear
Clear
40 °F
Feels Like 36 °F
N
5
Wind Variable Wind from NNE
Gusts 11.0 mph

Today
High -- | Low -- °F
--% Chance of Precip.
Yesterday
High -- | Low -- °F
Precip. -- in
6:49 AM 7:05 PM
Waning Crescent, 18% visible
Pressure 30.61 in
Visibility 10.0 miles
Clouds Clear
Windchill 36 °F
Dew Point 33 °F
Humidity 75%
Rainfall 0.00 in
Snow Depth 0 in , 1 in , 0 in
UV 3 out of 12
Pollen 5.90 out of 12
Air Quality Not available.
Flu Activity Not available.
METAR KMYP 191506Z AUTO 32007KT 10SM CLR 09/00 A3061 RMK AO2

More Conditions Fewer Conditions

Pressure 30.61 in
Visibility 10.0 miles
Clouds Clear
Windchill 36 °F
Dew Point 33 °F
Humidity 75%
Rainfall 0.00 in
Snow Depth 0 in , 1 in , 0 in
UV 3 out of 12
Pollen 5.90 out of 12
Air Quality Not available.
Flu Activity Not available.
METAR KMYP 191506Z AUTO 32007KT 10SM CLR 09/00 A3061 RMK AO2

More Conditions Fewer Conditions

10-Day Weather Forecast

Almanac

Astronomy

Sep. 19, 2014 Rise Set
Actual Time 6:49 AM MDT 7:05 PM MDT
Civil Twilight 6:22 AM MDT 7:32 PM MDT
Nautical Twilight 5:51 AM MDT 8:03 PM MDT
Astronomical Twilight 5:20 AM MDT 8:34 PM MDT
Moon 2:39 AM MDT 4:33 PM MDT
Length of Visible Light 13h 09m
Length of Day
12h 16m
Tomorrow will be 2m 28s shorter.
Waning Crescent, 18% of the Moon is Illuminated
Today
Waning Crescent
Sep 24
New
Oct 1
First Quarter
Oct 8
Full
Oct 15
Last Quarter

Today's Extremes

State Highs State Lows

Community

WunderPhotos

Upload Photos

1,754,637 photos uploaded!

WunderBlogs® & News

By Dr. Jeff Masters
Director of Meteorology, Weather Underground
By Kari Strenfel
Meteorologist, Weather Underground
By Christopher C. Burt
Weather Historian, Weather Underground
September 19, 2014
September 19, 2014
September 19, 2014

Nearby

Snow Depth

Station Depth Elevation
North Lost Trail 0 in 9200 ft
Lily Pond 1 in 11000 ft
Bison Lake 0 in 10880 ft
Columbine 1 in 9160 ft
Kiln 0 in 9600 ft

Earthquake Activity

City Distance Mag. Time & Date
No recent earthquake activity has been reported nearby.
Minimum magnitude displayed is 2.5.

Coastal Water Temperatures

Place Temperature
No Stations Reporting

Nearby Weather Stations